Viking Sky — LAYU7 — position and weather

sailwx.info

Track history (hours):
 
Tides and Currents Weather Stations Pressure Air Temp Water Temp Dewpoint Dewpoint Depression Visibility Wind Speed Wind Dir Waves Ship Positions

Viking Sky

Last reported at 2019-Apr-24 15:29 UTC. Time now 2019-Apr-24 15:50 UTC.
Position N 57°42' E 011°56'.

Length 228 m; draft 6.7 m.

Type: Passenger vessel. MMSI: 259186000.

Date/timePositionNaut miles runAvg speedWind from/ knotsBaromVisibWave heightAir tempDewpointWater temp
2019-Apr-24 15:29N 57°42' E 011°56'0 0.0
2019-Apr-24 14:59N 57°42' E 011°56'0 0.0
2019-Apr-24 14:29N 57°42' E 011°56'0 0.0
2019-Apr-24 13:59N 57°42' E 011°56'0 0.0
2019-Apr-24 13:29N 57°42' E 011°56'0 0.0
2019-Apr-24 12:59N 57°42' E 011°56'0 0.0
2019-Apr-24 12:29N 57°42' E 011°56'0 0.0
2019-Apr-24 11:59N 57°42' E 011°56'0 0.0
2019-Apr-24 11:29N 57°42' E 011°56'0 0.0
2019-Apr-24 10:59N 57°42' E 011°56'0 0.0
2019-Apr-24 10:29N 57°42' E 011°56'0 0.0
2019-Apr-24 09:59N 57°42' E 011°56'0 0.0
2019-Apr-24 09:29N 57°42' E 011°56'0 0.0
2019-Apr-24 08:59N 57°42' E 011°56'0 0.0
2019-Apr-24 08:29N 57°42' E 011°56'0 0.0
2019-Apr-24 07:59N 57°42' E 011°56'0 0.0
2019-Apr-24 07:29N 57°42' E 011°56'0 0.0
2019-Apr-24 06:59N 57°42' E 011°56'0 0.0
2019-Apr-24 06:29N 57°42' E 011°56'0 0.0
2019-Apr-24 05:59N 57°42' E 011°56'0 0.0
2019-Apr-24 05:30N 57°42' E 011°56'0 0.4
2019-Apr-24 05:00N 57°42' E 011°56'3 6.3
2019-Apr-24 04:30N 57°41' E 011°50'611.2
2019-Apr-24 04:00N 57°38' E 011°41'511.0
2019-Apr-24 03:30N 57°36' E 011°31'510.1
2019-Apr-24 03:00N 57°38' E 011°23'510.9
2019-Apr-24 02:30N 57°42' E 011°15'510.7
2019-Apr-24 02:00N 57°46' E 011°08'510.8
2019-Apr-24 01:30N 57°50' E 011°03'611.5
2019-Apr-24 01:00N 57°56' E 010°59'612.7
2019-Apr-24 00:30N 58°02' E 010°55'713.0
2019-Apr-24 00:00N 58°08' E 010°50'612.9
2019-Apr-23 23:30N 58°14' E 010°46'713.1
2019-Apr-23 23:00N 58°20' E 010°41'713.2
2019-Apr-23 22:30N 58°26' E 010°36'612.6
2019-Apr-23 22:00N 58°32' E 010°32'611.8
2019-Apr-23 21:30N 58°38' E 010°32'612.0
2019-Apr-23 21:00N 58°44' E 010°32'713.2
2019-Apr-23 20:30N 58°50' E 010°33'713.6
2019-Apr-23 20:00N 58°57' E 010°34'713.3
2019-Apr-23 19:30N 59°04' E 010°34'612.5
2019-Apr-23 19:00N 59°10' E 010°37'816.8
2019-Apr-23 18:30N 59°18' E 010°35'816.4
2019-Apr-23 18:00N 59°26' E 010°33'816.2
2019-Apr-23 17:30N 59°34' E 010°38'714.8
2019-Apr-23 17:00N 59°41' E 010°36'612.8
2019-Apr-23 16:30N 59°48' E 010°34'714.8
2019-Apr-23 16:00N 59°54' E 010°42'1 2.1
2019-Apr-23 15:29N 59°54' E 010°44'0 0.0
2019-Apr-23 14:59N 59°54' E 010°44'0 0.0
2019-Apr-23 14:29N 59°54' E 010°44'0 0.0
2019-Apr-23 13:59N 59°54' E 010°44'0 0.0
2019-Apr-23 13:29N 59°54' E 010°44'0 0.0
2019-Apr-23 12:59N 59°54' E 010°44'0 0.0
2019-Apr-23 12:29N 59°54' E 010°44'0 0.0
2019-Apr-23 11:59N 59°54' E 010°44'0 0.0
2019-Apr-23 11:29N 59°54' E 010°44'0 0.0
2019-Apr-23 10:59N 59°54' E 010°44'0 0.0
2019-Apr-23 10:29N 59°54' E 010°44'0 0.0
2019-Apr-23 09:59N 59°54' E 010°44'0 0.0
2019-Apr-23 09:29N 59°54' E 010°44'0 0.0
2019-Apr-23 08:59N 59°54' E 010°44'0 0.0
2019-Apr-23 08:29N 59°54' E 010°44'0 0.0
2019-Apr-23 07:59N 59°54' E 010°44'0 0.0
2019-Apr-23 07:29N 59°54' E 010°44'0 0.0
2019-Apr-23 06:59N 59°54' E 010°44'0 0.0
2019-Apr-23 06:29N 59°54' E 010°44'0 0.0
2019-Apr-23 05:59N 59°54' E 010°44'0 0.3
2019-Apr-23 05:30N 59°54' E 010°44'4 8.4
2019-Apr-23 05:00N 59°52' E 010°38'612.5
2019-Apr-23 04:30N 59°46' E 010°34'612.2
2019-Apr-23 04:00N 59°40' E 010°37'713.4
2019-Apr-23 03:30N 59°33' E 010°37'713.9
2019-Apr-23 03:00N 59°26' E 010°34'815.6
2019-Apr-23 02:30N 59°19' E 010°36'815.7
2019-Apr-23 02:00N 59°11' E 010°39'713.3
2019-Apr-23 01:30N 59°05' E 010°35'5 9.0
2019-Apr-23 01:00N 59°00' E 010°35'5 9.4
2019-Apr-23 00:30N 58°55' E 010°34'4 8.9
2019-Apr-23 00:00N 58°51' E 010°33'4 7.7
2019-Apr-22 23:30N 58°47' E 010°32'4 7.8
2019-Apr-22 23:00N 58°43' E 010°32'510.6
2019-Apr-22 22:30N 58°38' E 010°33'611.3
2019-Apr-22 22:00N 58°32' E 010°35'5 9.4
2019-Apr-22 21:30N 58°28' E 010°36'4 8.9
2019-Apr-22 21:00N 58°23' E 010°37'4 9.0
2019-Apr-22 20:30N 58°19' E 010°38'4 8.7
2019-Apr-22 20:00N 58°15' E 010°40'4 8.5
2019-Apr-22 19:30N 58°10' E 010°41'4 8.4
2019-Apr-22 19:00N 58°06' E 010°42'4 8.5
2019-Apr-22 18:30N 58°02' E 010°42'4 8.7
2019-Apr-22 18:00N 57°58' E 010°44'5 9.2
2019-Apr-22 17:30N 57°53' E 010°45'5 9.4
2019-Apr-22 17:00N 57°48' E 010°46'5 9.0
2019-Apr-22 16:30N 57°44' E 010°46'5 9.1
2019-Apr-22 16:00N 57°43' E 010°38'1 2.6
2019-Apr-22 15:28N 57°43' E 010°35'0 0.0
2019-Apr-22 14:58N 57°43' E 010°35'0 0.0
2019-Apr-22 14:28N 57°43' E 010°35'0 0.0
2019-Apr-22 13:58N 57°43' E 010°35'0 0.0
2019-Apr-22 13:28N 57°43' E 010°35'0 0.0
2019-Apr-22 12:58N 57°43' E 010°35'0 0.0
2019-Apr-22 12:28N 57°43' E 010°35'0 0.0
2019-Apr-22 11:58N 57°43' E 010°35'0 0.0
2019-Apr-22 11:28N 57°43' E 010°35'0 0.0
2019-Apr-22 10:58N 57°43' E 010°35'0 0.0
2019-Apr-22 10:28N 57°43' E 010°35'0 0.0
2019-Apr-22 09:58N 57°43' E 010°35'0 0.0
2019-Apr-22 09:28N 57°43' E 010°35'0 0.0
2019-Apr-22 08:58N 57°43' E 010°35'0 0.0
2019-Apr-22 08:28N 57°43' E 010°35'0 0.0
2019-Apr-22 07:58N 57°43' E 010°35'0 0.0
2019-Apr-22 07:28N 57°43' E 010°35'0 0.0
2019-Apr-22 06:58N 57°43' E 010°35'0 0.0
2019-Apr-22 06:28N 57°43' E 010°35'1 1.6
2019-Apr-22 06:01N 57°43' E 010°37'3 5.1
2019-Apr-22 05:30N 57°42' E 010°41'5 9.9
2019-Apr-22 05:00N 57°38' E 010°46'5 9.7
2019-Apr-22 04:31N 57°33' E 010°46'510.9
2019-Apr-22 04:00N 57°28' E 010°45'611.0
2019-Apr-22 03:31N 57°22' E 010°44'611.3
2019-Apr-22 03:01N 57°17' E 010°44'611.6
2019-Apr-22 02:30N 57°11' E 010°45'611.5
2019-Apr-22 02:01N 57°05' E 010°47'611.3
2019-Apr-22 01:30N 56°60' E 010°51'611.4
2019-Apr-22 01:00N 56°54' E 010°51'75 3.3
2019-Apr-21 02:07N 55°39' E 010°36'7 9.8
2019-Apr-21 01:22N 55°37' E 010°48'1311.9
2019-Apr-21 00:17N 55°26' E 010°59'311.6
2019-Apr-21 00:00N 55°23' E 011°02'611.1
2019-Apr-20 23:31N 55°18' E 011°03'810.5
2019-Apr-20 22:46N 55°10' E 011°03'312.0
2019-Apr-20 22:29N 55°06' E 011°03'611.7
2019-Apr-20 22:01N 55°01' E 011°02'611.5
2019-Apr-20 21:31N 54°56' E 010°57'611.7
2019-Apr-20 21:00N 54°50' E 010°53'612.0
2019-Apr-20 20:31N 54°44' E 010°53'510.5
2019-Apr-20 20:00N 54°40' E 010°50'611.4
2019-Apr-20 19:31N 54°36' E 010°42'510.7
2019-Apr-20 19:01N 54°33' E 010°34'510.5
2019-Apr-20 18:31N 54°31' E 010°26'510.7
2019-Apr-20 18:01N 54°29' E 010°18'510.4
2019-Apr-20 17:30N 54°25' E 010°13'5 9.4
2019-Apr-20 17:00N 54°20' E 010°10'1 1.7
2019-Apr-20 16:27N 54°19' E 010°09'0 0.0
2019-Apr-20 15:57N 54°19' E 010°09'0 0.0
2019-Apr-20 15:27N 54°19' E 010°09'0 0.0
2019-Apr-20 15:00N 54°19' E 010°09'0 0.0
2019-Apr-20 14:30N 54°19' E 010°09'0 0.0
2019-Apr-20 14:00N 54°19' E 010°09'0 0.0
2019-Apr-20 13:30N 54°19' E 010°09'0 0.0
2019-Apr-20 13:00N 54°19' E 010°09'0 0.0
2019-Apr-20 12:30N 54°19' E 010°09'0 0.0
2019-Apr-20 12:00N 54°19' E 010°09'0 0.0
2019-Apr-20 11:30N 54°19' E 010°09'0 0.0
2019-Apr-20 11:00N 54°19' E 010°09'0 0.0
2019-Apr-20 10:30N 54°19' E 010°09'0 0.0
2019-Apr-20 10:00N 54°19' E 010°09'0 0.0
2019-Apr-20 09:30N 54°19' E 010°09'0 0.0
2019-Apr-20 09:00N 54°19' E 010°09'0 0.0
2019-Apr-20 08:21N 54°19' E 010°09'0 0.0
2019-Apr-20 07:51N 54°19' E 010°09'0 0.0
2019-Apr-20 07:30N 54°19' E 010°09'0 0.0
2019-Apr-20 06:54N 54°19' E 010°09'0 0.0
2019-Apr-20 06:30N 54°19' E 010°09'2 4.7
2019-Apr-20 06:00N 54°22' E 010°10'1 1.6
2019-Apr-20 05:30N 54°22' E 010°08'3 5.1
2019-Apr-20 05:00N 54°22' E 010°04'3 6.5
2019-Apr-20 04:30N 54°21' E 009°59'3 6.5
2019-Apr-20 04:00N 54°21' E 009°53'3 6.8
2019-Apr-20 03:30N 54°22' E 009°47'3 7.0
2019-Apr-20 03:00N 54°19' E 009°43'3 5.7
2019-Apr-20 02:30N 54°17' E 009°39'3 6.8
2019-Apr-20 02:00N 54°14' E 009°37'3 6.7
2019-Apr-20 01:30N 54°12' E 009°33'4 7.0
2019-Apr-20 01:00N 54°11' E 009°27'3 6.0
2019-Apr-20 00:30N 54°09' E 009°23'3 6.2
2019-Apr-20 00:00N 54°07' E 009°20'3 6.9
2019-Apr-19 23:30N 54°03' E 009°18'3 6.2
2019-Apr-19 23:00N 54°00' E 009°18'3 6.4
2019-Apr-19 22:30N 53°58' E 009°15'1 2.4
2019-Apr-19 22:00N 53°57' E 009°14'1 2.5
2019-Apr-19 21:30N 53°56' E 009°12'3 5.1
2019-Apr-19 21:00N 53°54' E 009°09'0 0.5
2019-Apr-19 20:30N 53°54' E 009°09'1 2.0
2019-Apr-19 19:59N 53°53' E 009°07'1 2.9
2019-Apr-19 19:30N 53°53' E 009°10'510.5
2019-Apr-19 19:00N 53°52' E 009°18'5 9.9
2019-Apr-19 18:30N 53°47' E 009°23'4 8.1
2019-Apr-19 18:00N 53°44' E 009°27'4 7.5
2019-Apr-19 17:30N 53°41' E 009°30'713.9
2019-Apr-19 17:00N 53°35' E 009°37'612.2
2019-Apr-19 16:30N 53°34' E 009°47'510.2
2019-Apr-19 16:00N 53°32' E 009°55'1 1.3
2019-Apr-19 15:29N 53°33' E 009°56'0 0.0
2019-Apr-19 14:59N 53°33' E 009°56'0 0.0
2019-Apr-19 14:29N 53°33' E 009°56'0 0.0
2019-Apr-19 13:59N 53°33' E 009°56'0 0.0
2019-Apr-19 13:29N 53°33' E 009°56'0 0.0
2019-Apr-19 12:59N 53°33' E 009°56'0 0.0
2019-Apr-19 12:29N 53°33' E 009°56'0 0.0
2019-Apr-19 11:59N 53°33' E 009°56'0 0.0
2019-Apr-19 11:29N 53°33' E 009°56'0 0.0
2019-Apr-19 10:59N 53°33' E 009°56'0 0.0
2019-Apr-19 10:29N 53°33' E 009°56'0 0.0
2019-Apr-19 09:59N 53°33' E 009°56'0 0.0
2019-Apr-19 09:29N 53°33' E 009°56'0 0.0
2019-Apr-19 08:59N 53°33' E 009°56'0 0.0
2019-Apr-19 08:29N 53°33' E 009°56'0 0.0
2019-Apr-19 07:59N 53°33' E 009°56'0 0.0
2019-Apr-19 07:29N 53°33' E 009°56'0 0.0
2019-Apr-19 06:59N 53°33' E 009°56'0 0.0
2019-Apr-19 06:29N 53°33' E 009°56'0 0.0
2019-Apr-19 05:59N 53°33' E 009°56'0 0.0
2019-Apr-19 05:29N 53°33' E 009°56'0 0.0
2019-Apr-19 04:59N 53°33' E 009°56'0 0.0
2019-Apr-19 04:29N 53°33' E 009°56'0 0.0
2019-Apr-19 03:59N 53°33' E 009°56'0 0.0
2019-Apr-19 03:29N 53°33' E 009°56'0 0.0
2019-Apr-19 02:59N 53°33' E 009°56'0 0.0
2019-Apr-19 02:29N 53°33' E 009°56'0 0.0
2019-Apr-19 01:59N 53°33' E 009°56'0 0.0
2019-Apr-19 01:29N 53°33' E 009°56'0 0.0
2019-Apr-19 00:59N 53°33' E 009°56'0 0.0
2019-Apr-19 00:29N 53°33' E 009°56'0 0.0
2019-Apr-18 23:59N 53°33' E 009°56'0 0.0
2019-Apr-18 23:29N 53°33' E 009°56'0 0.0
2019-Apr-18 22:59N 53°33' E 009°56'0 0.0
2019-Apr-18 22:29N 53°33' E 009°56'0 0.0
2019-Apr-18 21:59N 53°33' E 009°56'0 0.0
2019-Apr-18 21:29N 53°33' E 009°56'0 0.0
2019-Apr-18 20:59N 53°33' E 009°56'0 0.0
2019-Apr-18 20:29N 53°33' E 009°56'0 0.0
2019-Apr-18 19:59N 53°33' E 009°56'0 0.0
2019-Apr-18 19:29N 53°33' E 009°56'0 0.0
2019-Apr-18 18:59N 53°33' E 009°56'0 0.0
2019-Apr-18 18:29N 53°33' E 009°56'0 0.0
2019-Apr-18 17:59N 53°33' E 009°56'0 0.0
2019-Apr-18 17:29N 53°33' E 009°56'0 0.0
2019-Apr-18 16:59N 53°33' E 009°56'0 0.0
2019-Apr-18 16:29N 53°33' E 009°56'0 0.0
2019-Apr-18 15:59N 53°33' E 009°56'0 0.0
2019-Apr-18 15:29N 53°33' E 009°56'0 0.0
2019-Apr-18 14:56N 53°33' E 009°56'0 0.0
2019-Apr-18 14:29N 53°33' E 009°56'0 0.0
2019-Apr-18 13:59N 53°33' E 009°56'0 0.0
2019-Apr-18 13:29N 53°33' E 009°56'0 0.0
2019-Apr-18 12:59N 53°33' E 009°56'0 0.0
2019-Apr-18 12:29N 53°33' E 009°56'0 0.0
2019-Apr-18 11:59N 53°33' E 009°56'0 0.0
2019-Apr-18 11:29N 53°33' E 009°56'0 0.0
2019-Apr-18 10:59N 53°33' E 009°56'0 0.0
2019-Apr-18 10:29N 53°33' E 009°56'1 2.8
2019-Apr-18 10:00N 53°32' E 009°54'4 7.3
2019-Apr-18 09:30N 53°33' E 009°48'5 9.5
2019-Apr-18 09:00N 53°34' E 009°40'611.0
2019-Apr-18 08:30N 53°37' E 009°33'510.7
2019-Apr-18 08:00N 53°42' E 009°29'611.3
2019-Apr-18 07:30N 53°47' E 009°23'612.0
2019-Apr-18 07:00N 53°52' E 009°18'611.8
2019-Apr-18 06:30N 53°53' E 009°08'610.5
2019-Apr-18 05:56N 53°51' E 008°58'512.8
2019-Apr-18 05:30N 53°50' E 008°49'611.7
2019-Apr-18 05:00N 53°54' E 008°41'713.5
2019-Apr-18 04:30N 53°58' E 008°32'714.2
2019-Apr-18 04:00N 53°59' E 008°20'612.7
2019-Apr-18 03:30N 53°60' E 008°09'714.2
2019-Apr-18 03:00N 53°58' E 007°57'815.3
2019-Apr-18 02:30N 53°56' E 007°45'815.2
2019-Apr-18 02:00N 53°55' E 007°32'3015.0
2019-Apr-17 23:58N 53°48' E 006°42'814.9
2019-Apr-17 23:28N 53°46' E 006°30'715.1
2019-Apr-17 23:00N 53°45' E 006°18'1215.4
2019-Apr-17 22:12N 53°40' E 005°58'315.6
2019-Apr-17 22:00N 53°40' E 005°54'815.6
2019-Apr-17 21:30N 53°37' E 005°41'815.7
2019-Apr-17 21:00N 53°34' E 005°29'817.0
2019-Apr-17 20:30N 53°32' E 005°15'1017.6
2019-Apr-17 19:58N 53°28' E 005°00'1917.0
2019-Apr-17 18:51N 53°15' E 004°37'617.4
2019-Apr-17 18:30N 53°10' E 004°32'816.1
2019-Apr-17 18:00N 53°03' E 004°26'816.5
2019-Apr-17 17:30N 52°56' E 004°19'1416.6
2019-Apr-17 16:40N 52°44' E 004°09'316.6
2019-Apr-17 16:30N 52°41' E 004°12'816.9
2019-Apr-17 16:00N 52°35' E 004°20'714.5
2019-Apr-17 15:30N 52°29' E 004°28'510.6
2019-Apr-17 15:00N 52°28' E 004°36'0 0.6
2019-Apr-17 14:31N 52°28' E 004°37'3 5.5
2019-Apr-17 14:00N 52°27' E 004°41'4 8.0
2019-Apr-17 13:30N 52°26' E 004°47'4 7.5
2019-Apr-17 13:01N 52°24' E 004°53'2 4.0
2019-Apr-17 12:30N 52°23' E 004°55'0 0.0
2019-Apr-17 12:00N 52°23' E 004°55'0 0.0
2019-Apr-17 11:30N 52°23' E 004°55'0 0.0
2019-Apr-17 11:00N 52°23' E 004°55'0 0.0
2019-Apr-17 10:30N 52°23' E 004°55'0 0.0
2019-Apr-17 10:00N 52°23' E 004°55'0 0.0
2019-Apr-17 09:30N 52°23' E 004°55'0 0.0
2019-Apr-17 09:00N 52°23' E 004°55'0 0.0
2019-Apr-17 08:30N 52°23' E 004°55'0 0.0
2019-Apr-17 08:00N 52°23' E 004°55'0 0.0
2019-Apr-17 07:30N 52°23' E 004°55'0 0.0
2019-Apr-17 07:00N 52°23' E 004°55'0 0.0
2019-Apr-17 06:30N 52°23' E 004°55'0 0.0
2019-Apr-17 06:00N 52°23' E 004°55'0 0.0
2019-Apr-17 05:30N 52°23' E 004°55'0 0.0
2019-Apr-17 05:00N 52°23' E 004°55'0 0.0
2019-Apr-17 04:30N 52°23' E 004°55'0 0.0
2019-Apr-17 03:57N 52°23' E 004°55'0 0.0
2019-Apr-17 03:30N 52°23' E 004°55'0 0.0
2019-Apr-17 03:00N 52°23' E 004°55'0 0.0
2019-Apr-17 02:30N 52°23' E 004°55'0 0.0
2019-Apr-17 02:00N 52°23' E 004°55'0 0.0
2019-Apr-17 01:30N 52°23' E 004°55'0 0.0
2019-Apr-17 01:00N 52°23' E 004°55'0 0.0
2019-Apr-17 00:30N 52°23' E 004°55'0 0.0
2019-Apr-17 00:00N 52°23' E 004°55'0 0.0
2019-Apr-16 23:30N 52°23' E 004°55'0 0.0
2019-Apr-16 23:00N 52°23' E 004°55'0 0.0
2019-Apr-16 22:27N 52°23' E 004°55'0 0.0
2019-Apr-16 22:00N 52°23' E 004°55'0 0.0
2019-Apr-16 21:30N 52°23' E 004°55'0 0.0
2019-Apr-16 21:00N 52°23' E 004°55'0 0.0
2019-Apr-16 20:30N 52°23' E 004°55'0 0.0
2019-Apr-16 20:00N 52°23' E 004°55'0 0.0
2019-Apr-16 19:30N 52°23' E 004°55'0 0.0
2019-Apr-16 19:00N 52°23' E 004°55'0 0.0
2019-Apr-16 18:30N 52°23' E 004°55'0 0.0
2019-Apr-16 18:00N 52°23' E 004°55'0 0.0
2019-Apr-16 17:30N 52°23' E 004°55'0 0.0
2019-Apr-16 17:00N 52°23' E 004°55'0 0.0
2019-Apr-16 16:30N 52°23' E 004°55'0 0.0
2019-Apr-16 16:00N 52°23' E 004°55'0 0.0
2019-Apr-16 15:30N 52°23' E 004°55'0 0.0
2019-Apr-16 15:00N 52°23' E 004°55'0 0.0
2019-Apr-16 14:30N 52°23' E 004°55'0 0.0
2019-Apr-16 14:00N 52°23' E 004°55'0 0.0
2019-Apr-16 13:30N 52°23' E 004°55'0 0.0
2019-Apr-16 13:00N 52°23' E 004°55'0 0.0
2019-Apr-16 12:27N 52°23' E 004°55'0 0.0
2019-Apr-16 12:00N 52°23' E 004°55'0 0.0
2019-Apr-16 11:27N 52°23' E 004°55'0 0.0
2019-Apr-16 11:00N 52°23' E 004°55'0 0.0
2019-Apr-16 10:30N 52°23' E 004°55'0 0.0
2019-Apr-16 10:00N 52°23' E 004°55'0 0.0
2019-Apr-16 09:30N 52°23' E 004°55'0 0.0
2019-Apr-16 09:00N 52°23' E 004°55'0 0.0
2019-Apr-16 08:30N 52°23' E 004°55'0 0.0
2019-Apr-16 07:57N 52°23' E 004°55'0 0.0
2019-Apr-16 07:30N 52°23' E 004°55'0 0.0
2019-Apr-16 07:00N 52°23' E 004°55'0 0.0
2019-Apr-16 06:30N 52°23' E 004°55'0 0.0
2019-Apr-16 06:00N 52°23' E 004°55'0 0.0
2019-Apr-16 05:30N 52°23' E 004°55'0 0.0
2019-Apr-16 05:00N 52°23' E 004°55'0 0.0
2019-Apr-16 04:30N 52°23' E 004°55'0 0.0
2019-Apr-16 03:57N 52°23' E 004°55'0 0.0
2019-Apr-16 03:30N 52°23' E 004°55'0 0.0
2019-Apr-16 02:57N 52°23' E 004°55'0 0.0
2019-Apr-16 02:30N 52°23' E 004°55'0 0.0
2019-Apr-16 02:00N 52°23' E 004°55'0 0.0
2019-Apr-16 01:30N 52°23' E 004°55'0 0.0
2019-Apr-16 01:00N 52°23' E 004°55'0 0.0
2019-Apr-16 00:30N 52°23' E 004°55'0 0.0
2019-Apr-15 23:57N 52°23' E 004°55'0 0.0
2019-Apr-15 23:30N 52°23' E 004°55'0 0.0
2019-Apr-15 23:00N 52°23' E 004°55'0 0.0
2019-Apr-15 22:30N 52°23' E 004°55'0 0.0
2019-Apr-15 22:00N 52°23' E 004°55'0 0.0
2019-Apr-15 21:30N 52°23' E 004°55'0 0.0
2019-Apr-15 21:00N 52°23' E 004°55'0 0.0
2019-Apr-15 20:30N 52°23' E 004°55'0 0.0
2019-Apr-15 20:00N 52°23' E 004°55'0 0.0
2019-Apr-15 19:27N 52°23' E 004°55'0 0.0
2019-Apr-15 19:00N 52°23' E 004°55'0 0.0
2019-Apr-15 18:30N 52°23' E 004°55'0 0.0
2019-Apr-15 18:00N 52°23' E 004°55'0 0.0
2019-Apr-15 17:30N 52°23' E 004°55'0 0.0
2019-Apr-15 17:00N 52°23' E 004°55'0 0.0
2019-Apr-15 16:30N 52°23' E 004°55'0 0.0
2019-Apr-15 16:00N 52°23' E 004°55'0 0.0
2019-Apr-15 15:30N 52°23' E 004°55'0 0.0
2019-Apr-15 15:00N 52°23' E 004°55'0 0.0
2019-Apr-15 14:30N 52°23' E 004°55'0 0.0
2019-Apr-15 14:00N 52°23' E 004°55'0 0.0
2019-Apr-15 13:30N 52°23' E 004°55'0 0.0
2019-Apr-15 13:00N 52°23' E 004°55'0 0.0
2019-Apr-15 12:30N 52°23' E 004°55'0 0.0
2019-Apr-15 12:00N 52°23' E 004°55'0 0.0
2019-Apr-15 11:30N 52°23' E 004°55'0 0.0
2019-Apr-15 11:00N 52°23' E 004°55'0 0.0
2019-Apr-15 10:30N 52°23' E 004°55'0 0.8
2019-Apr-15 10:00N 52°23' E 004°54'3 5.5
2019-Apr-15 09:31N 52°25' E 004°52'4 7.9
2019-Apr-15 09:00N 52°26' E 004°45'4 8.5
2019-Apr-15 08:30N 52°28' E 004°39'1 3.0
2019-Apr-15 08:01N 52°28' E 004°37'2 4.3
2019-Apr-15 07:31N 52°28' E 004°33'611.4
2019-Apr-15 07:00N 52°29' E 004°24'510.3
2019-Apr-15 06:30N 52°29' E 004°15'611.9
2019-Apr-15 06:00N 52°32' E 004°07'714.7
2019-Apr-15 05:30N 52°39' E 004°03'815.5
2019-Apr-15 04:59N 52°46' E 003°59'1814.9
2019-Apr-15 03:47N 53°03' E 004°09'415.6
2019-Apr-15 03:30N 53°06' E 004°15'714.8
2019-Apr-15 03:00N 53°11' E 004°24'714.5
2019-Apr-15 02:30N 53°17' E 004°29'12515.1
2019-Apr-14 18:14N 54°02' E 007°45'416.8
2019-Apr-14 18:00N 54°01' E 007°52'816.6
2019-Apr-14 17:30N 54°01' E 008°06'612.2
2019-Apr-14 17:00N 54°00' E 008°16'713.4
2019-Apr-14 16:30N 53°59' E 008°28'713.6
2019-Apr-14 16:00N 53°57' E 008°39'613.0
2019-Apr-14 15:30N 53°51' E 008°45'  
Track history (hours):
 
Tides and Currents Weather Stations Pressure Air Temp Water Temp Dewpoint Dewpoint Depression Visibility Wind Speed Wind Dir Waves Ship Positions

Viking Sky

Last reported at 2019-Apr-24 15:29 UTC. Time now 2019-Apr-24 15:50 UTC.
Position N 57°42' E 011°56'.

Length 228 m; draft 6.7 m.

Type: Passenger vessel. MMSI: 259186000.

Date/timePositionNaut miles runAvg speedWind from/ knotsBaromVisibWave heightAir tempDewpointWater temp
2019-Apr-24 15:29N 57°42' E 011°56'0 0.0
2019-Apr-24 14:59N 57°42' E 011°56'0 0.0
2019-Apr-24 14:29N 57°42' E 011°56'0 0.0
2019-Apr-24 13:59N 57°42' E 011°56'0 0.0
2019-Apr-24 13:29N 57°42' E 011°56'0 0.0
2019-Apr-24 12:59N 57°42' E 011°56'0 0.0
2019-Apr-24 12:29N 57°42' E 011°56'0 0.0
2019-Apr-24 11:59N 57°42' E 011°56'0 0.0
2019-Apr-24 11:29N 57°42' E 011°56'0 0.0
2019-Apr-24 10:59N 57°42' E 011°56'0 0.0
2019-Apr-24 10:29N 57°42' E 011°56'0 0.0
2019-Apr-24 09:59N 57°42' E 011°56'0 0.0
2019-Apr-24 09:29N 57°42' E 011°56'0 0.0
2019-Apr-24 08:59N 57°42' E 011°56'0 0.0
2019-Apr-24 08:29N 57°42' E 011°56'0 0.0
2019-Apr-24 07:59N 57°42' E 011°56'0 0.0
2019-Apr-24 07:29N 57°42' E 011°56'0 0.0
2019-Apr-24 06:59N 57°42' E 011°56'0 0.0
2019-Apr-24 06:29N 57°42' E 011°56'0 0.0
2019-Apr-24 05:59N 57°42' E 011°56'0 0.0
2019-Apr-24 05:30N 57°42' E 011°56'0 0.4
2019-Apr-24 05:00N 57°42' E 011°56'3 6.3
2019-Apr-24 04:30N 57°41' E 011°50'611.2
2019-Apr-24 04:00N 57°38' E 011°41'511.0
2019-Apr-24 03:30N 57°36' E 011°31'510.1
2019-Apr-24 03:00N 57°38' E 011°23'510.9
2019-Apr-24 02:30N 57°42' E 011°15'510.7
2019-Apr-24 02:00N 57°46' E 011°08'510.8
2019-Apr-24 01:30N 57°50' E 011°03'611.5
2019-Apr-24 01:00N 57°56' E 010°59'612.7
2019-Apr-24 00:30N 58°02' E 010°55'713.0
2019-Apr-24 00:00N 58°08' E 010°50'612.9
2019-Apr-23 23:30N 58°14' E 010°46'713.1
2019-Apr-23 23:00N 58°20' E 010°41'713.2
2019-Apr-23 22:30N 58°26' E 010°36'612.6
2019-Apr-23 22:00N 58°32' E 010°32'611.8
2019-Apr-23 21:30N 58°38' E 010°32'612.0
2019-Apr-23 21:00N 58°44' E 010°32'713.2
2019-Apr-23 20:30N 58°50' E 010°33'713.6
2019-Apr-23 20:00N 58°57' E 010°34'713.3
2019-Apr-23 19:30N 59°04' E 010°34'612.5
2019-Apr-23 19:00N 59°10' E 010°37'816.8
2019-Apr-23 18:30N 59°18' E 010°35'816.4
2019-Apr-23 18:00N 59°26' E 010°33'816.2
2019-Apr-23 17:30N 59°34' E 010°38'714.8
2019-Apr-23 17:00N 59°41' E 010°36'612.8
2019-Apr-23 16:30N 59°48' E 010°34'714.8
2019-Apr-23 16:00N 59°54' E 010°42'1 2.1
2019-Apr-23 15:29N 59°54' E 010°44'0 0.0
2019-Apr-23 14:59N 59°54' E 010°44'0 0.0
2019-Apr-23 14:29N 59°54' E 010°44'0 0.0
2019-Apr-23 13:59N 59°54' E 010°44'0 0.0
2019-Apr-23 13:29N 59°54' E 010°44'0 0.0
2019-Apr-23 12:59N 59°54' E 010°44'0 0.0
2019-Apr-23 12:29N 59°54' E 010°44'0 0.0
2019-Apr-23 11:59N 59°54' E 010°44'0 0.0
2019-Apr-23 11:29N 59°54' E 010°44'0 0.0
2019-Apr-23 10:59N 59°54' E 010°44'0 0.0
2019-Apr-23 10:29N 59°54' E 010°44'0 0.0
2019-Apr-23 09:59N 59°54' E 010°44'0 0.0
2019-Apr-23 09:29N 59°54' E 010°44'0 0.0
2019-Apr-23 08:59N 59°54' E 010°44'0 0.0
2019-Apr-23 08:29N 59°54' E 010°44'0 0.0
2019-Apr-23 07:59N 59°54' E 010°44'0 0.0
2019-Apr-23 07:29N 59°54' E 010°44'0 0.0
2019-Apr-23 06:59N 59°54' E 010°44'0 0.0
2019-Apr-23 06:29N 59°54' E 010°44'0 0.0
2019-Apr-23 05:59N 59°54' E 010°44'0 0.3
2019-Apr-23 05:30N 59°54' E 010°44'4 8.4
2019-Apr-23 05:00N 59°52' E 010°38'612.5
2019-Apr-23 04:30N 59°46' E 010°34'612.2
2019-Apr-23 04:00N 59°40' E 010°37'713.4
2019-Apr-23 03:30N 59°33' E 010°37'713.9
2019-Apr-23 03:00N 59°26' E 010°34'815.6
2019-Apr-23 02:30N 59°19' E 010°36'815.7
2019-Apr-23 02:00N 59°11' E 010°39'713.3
2019-Apr-23 01:30N 59°05' E 010°35'5 9.0
2019-Apr-23 01:00N 59°00' E 010°35'5 9.4
2019-Apr-23 00:30N 58°55' E 010°34'4 8.9
2019-Apr-23 00:00N 58°51' E 010°33'4 7.7
2019-Apr-22 23:30N 58°47' E 010°32'4 7.8
2019-Apr-22 23:00N 58°43' E 010°32'510.6
2019-Apr-22 22:30N 58°38' E 010°33'611.3
2019-Apr-22 22:00N 58°32' E 010°35'5 9.4
2019-Apr-22 21:30N 58°28' E 010°36'4 8.9
2019-Apr-22 21:00N 58°23' E 010°37'4 9.0
2019-Apr-22 20:30N 58°19' E 010°38'4 8.7
2019-Apr-22 20:00N 58°15' E 010°40'4 8.5
2019-Apr-22 19:30N 58°10' E 010°41'4 8.4
2019-Apr-22 19:00N 58°06' E 010°42'4 8.5
2019-Apr-22 18:30N 58°02' E 010°42'4 8.7
2019-Apr-22 18:00N 57°58' E 010°44'5 9.2
2019-Apr-22 17:30N 57°53' E 010°45'5 9.4
2019-Apr-22 17:00N 57°48' E 010°46'5 9.0
2019-Apr-22 16:30N 57°44' E 010°46'5 9.1
2019-Apr-22 16:00N 57°43' E 010°38'1 2.6
2019-Apr-22 15:28N 57°43' E 010°35'0 0.0
2019-Apr-22 14:58N 57°43' E 010°35'0 0.0
2019-Apr-22 14:28N 57°43' E 010°35'0 0.0
2019-Apr-22 13:58N 57°43' E 010°35'0 0.0
2019-Apr-22 13:28N 57°43' E 010°35'0 0.0
2019-Apr-22 12:58N 57°43' E 010°35'0 0.0
2019-Apr-22 12:28N 57°43' E 010°35'0 0.0
2019-Apr-22 11:58N 57°43' E 010°35'0 0.0
2019-Apr-22 11:28N 57°43' E 010°35'0 0.0
2019-Apr-22 10:58N 57°43' E 010°35'0 0.0
2019-Apr-22 10:28N 57°43' E 010°35'0 0.0
2019-Apr-22 09:58N 57°43' E 010°35'0 0.0
2019-Apr-22 09:28N 57°43' E 010°35'0 0.0
2019-Apr-22 08:58N 57°43' E 010°35'0 0.0
2019-Apr-22 08:28N 57°43' E 010°35'0 0.0
2019-Apr-22 07:58N 57°43' E 010°35'0 0.0
2019-Apr-22 07:28N 57°43' E 010°35'0 0.0
2019-Apr-22 06:58N 57°43' E 010°35'0 0.0
2019-Apr-22 06:28N 57°43' E 010°35'1 1.6
2019-Apr-22 06:01N 57°43' E 010°37'3 5.1
2019-Apr-22 05:30N 57°42' E 010°41'5 9.9
2019-Apr-22 05:00N 57°38' E 010°46'5 9.7
2019-Apr-22 04:31N 57°33' E 010°46'510.9
2019-Apr-22 04:00N 57°28' E 010°45'611.0
2019-Apr-22 03:31N 57°22' E 010°44'611.3
2019-Apr-22 03:01N 57°17' E 010°44'611.6
2019-Apr-22 02:30N 57°11' E 010°45'611.5
2019-Apr-22 02:01N 57°05' E 010°47'611.3
2019-Apr-22 01:30N 56°60' E 010°51'611.4
2019-Apr-22 01:00N 56°54' E 010°51'75 3.3
2019-Apr-21 02:07N 55°39' E 010°36'7 9.8
2019-Apr-21 01:22N 55°37' E 010°48'1311.9
2019-Apr-21 00:17N 55°26' E 010°59'311.6
2019-Apr-21 00:00N 55°23' E 011°02'611.1
2019-Apr-20 23:31N 55°18' E 011°03'810.5
2019-Apr-20 22:46N 55°10' E 011°03'312.0
2019-Apr-20 22:29N 55°06' E 011°03'611.7
2019-Apr-20 22:01N 55°01' E 011°02'611.5
2019-Apr-20 21:31N 54°56' E 010°57'611.7
2019-Apr-20 21:00N 54°50' E 010°53'612.0
2019-Apr-20 20:31N 54°44' E 010°53'510.5
2019-Apr-20 20:00N 54°40' E 010°50'611.4
2019-Apr-20 19:31N 54°36' E 010°42'510.7
2019-Apr-20 19:01N 54°33' E 010°34'510.5
2019-Apr-20 18:31N 54°31' E 010°26'510.7
2019-Apr-20 18:01N 54°29' E 010°18'510.4
2019-Apr-20 17:30N 54°25' E 010°13'5 9.4
2019-Apr-20 17:00N 54°20' E 010°10'1 1.7
2019-Apr-20 16:27N 54°19' E 010°09'0 0.0
2019-Apr-20 15:57N 54°19' E 010°09'0 0.0
2019-Apr-20 15:27N 54°19' E 010°09'0 0.0
2019-Apr-20 15:00N 54°19' E 010°09'0 0.0
2019-Apr-20 14:30N 54°19' E 010°09'0 0.0
2019-Apr-20 14:00N 54°19' E 010°09'0 0.0
2019-Apr-20 13:30N 54°19' E 010°09'0 0.0
2019-Apr-20 13:00N 54°19' E 010°09'0 0.0
2019-Apr-20 12:30N 54°19' E 010°09'0 0.0
2019-Apr-20 12:00N 54°19' E 010°09'0 0.0
2019-Apr-20 11:30N 54°19' E 010°09'0 0.0
2019-Apr-20 11:00N 54°19' E 010°09'0 0.0
2019-Apr-20 10:30N 54°19' E 010°09'0 0.0
2019-Apr-20 10:00N 54°19' E 010°09'0 0.0
2019-Apr-20 09:30N 54°19' E 010°09'0 0.0
2019-Apr-20 09:00N 54°19' E 010°09'0 0.0
2019-Apr-20 08:21N 54°19' E 010°09'0 0.0
2019-Apr-20 07:51N 54°19' E 010°09'0 0.0
2019-Apr-20 07:30N 54°19' E 010°09'0 0.0
2019-Apr-20 06:54N 54°19' E 010°09'0 0.0
2019-Apr-20 06:30N 54°19' E 010°09'2 4.7
2019-Apr-20 06:00N 54°22' E 010°10'1 1.6
2019-Apr-20 05:30N 54°22' E 010°08'3 5.1
2019-Apr-20 05:00N 54°22' E 010°04'3 6.5
2019-Apr-20 04:30N 54°21' E 009°59'3 6.5
2019-Apr-20 04:00N 54°21' E 009°53'3 6.8
2019-Apr-20 03:30N 54°22' E 009°47'3 7.0
2019-Apr-20 03:00N 54°19' E 009°43'3 5.7
2019-Apr-20 02:30N 54°17' E 009°39'3 6.8
2019-Apr-20 02:00N 54°14' E 009°37'3 6.7
2019-Apr-20 01:30N 54°12' E 009°33'4 7.0
2019-Apr-20 01:00N 54°11' E 009°27'3 6.0
2019-Apr-20 00:30N 54°09' E 009°23'3 6.2
2019-Apr-20 00:00N 54°07' E 009°20'3 6.9
2019-Apr-19 23:30N 54°03' E 009°18'3 6.2
2019-Apr-19 23:00N 54°00' E 009°18'3 6.4
2019-Apr-19 22:30N 53°58' E 009°15'1 2.4
2019-Apr-19 22:00N 53°57' E 009°14'1 2.5
2019-Apr-19 21:30N 53°56' E 009°12'3 5.1
2019-Apr-19 21:00N 53°54' E 009°09'0 0.5
2019-Apr-19 20:30N 53°54' E 009°09'1 2.0
2019-Apr-19 19:59N 53°53' E 009°07'1 2.9
2019-Apr-19 19:30N 53°53' E 009°10'510.5
2019-Apr-19 19:00N 53°52' E 009°18'5 9.9
2019-Apr-19 18:30N 53°47' E 009°23'4 8.1
2019-Apr-19 18:00N 53°44' E 009°27'4 7.5
2019-Apr-19 17:30N 53°41' E 009°30'713.9
2019-Apr-19 17:00N 53°35' E 009°37'612.2
2019-Apr-19 16:30N 53°34' E 009°47'510.2
2019-Apr-19 16:00N 53°32' E 009°55'1 1.3
2019-Apr-19 15:29N 53°33' E 009°56'0 0.0
2019-Apr-19 14:59N 53°33' E 009°56'0 0.0
2019-Apr-19 14:29N 53°33' E 009°56'0 0.0
2019-Apr-19 13:59N 53°33' E 009°56'0 0.0
2019-Apr-19 13:29N 53°33' E 009°56'0 0.0
2019-Apr-19 12:59N 53°33' E 009°56'0 0.0
2019-Apr-19 12:29N 53°33' E 009°56'0 0.0
2019-Apr-19 11:59N 53°33' E 009°56'0 0.0
2019-Apr-19 11:29N 53°33' E 009°56'0 0.0
2019-Apr-19 10:59N 53°33' E 009°56'0 0.0
2019-Apr-19 10:29N 53°33' E 009°56'0 0.0
2019-Apr-19 09:59N 53°33' E 009°56'0 0.0
2019-Apr-19 09:29N 53°33' E 009°56'0 0.0
2019-Apr-19 08:59N 53°33' E 009°56'0 0.0
2019-Apr-19 08:29N 53°33' E 009°56'0 0.0
2019-Apr-19 07:59N 53°33' E 009°56'0 0.0
2019-Apr-19 07:29N 53°33' E 009°56'0 0.0
2019-Apr-19 06:59N 53°33' E 009°56'0 0.0
2019-Apr-19 06:29N 53°33' E 009°56'0 0.0
2019-Apr-19 05:59N 53°33' E 009°56'0 0.0
2019-Apr-19 05:29N 53°33' E 009°56'0 0.0
2019-Apr-19 04:59N 53°33' E 009°56'0 0.0
2019-Apr-19 04:29N 53°33' E 009°56'0 0.0
2019-Apr-19 03:59N 53°33' E 009°56'0 0.0
2019-Apr-19 03:29N 53°33' E 009°56'0 0.0
2019-Apr-19 02:59N 53°33' E 009°56'0 0.0
2019-Apr-19 02:29N 53°33' E 009°56'0 0.0
2019-Apr-19 01:59N 53°33' E 009°56'0 0.0
2019-Apr-19 01:29N 53°33' E 009°56'0 0.0
2019-Apr-19 00:59N 53°33' E 009°56'0 0.0
2019-Apr-19 00:29N 53°33' E 009°56'0 0.0
2019-Apr-18 23:59N 53°33' E 009°56'0 0.0
2019-Apr-18 23:29N 53°33' E 009°56'0 0.0
2019-Apr-18 22:59N 53°33' E 009°56'0 0.0
2019-Apr-18 22:29N 53°33' E 009°56'0 0.0
2019-Apr-18 21:59N 53°33' E 009°56'0 0.0
2019-Apr-18 21:29N 53°33' E 009°56'0 0.0
2019-Apr-18 20:59N 53°33' E 009°56'0 0.0
2019-Apr-18 20:29N 53°33' E 009°56'0 0.0
2019-Apr-18 19:59N 53°33' E 009°56'0 0.0
2019-Apr-18 19:29N 53°33' E 009°56'0 0.0
2019-Apr-18 18:59N 53°33' E 009°56'0 0.0
2019-Apr-18 18:29N 53°33' E 009°56'0 0.0
2019-Apr-18 17:59N 53°33' E 009°56'0 0.0
2019-Apr-18 17:29N 53°33' E 009°56'0 0.0
2019-Apr-18 16:59N 53°33' E 009°56'0 0.0
2019-Apr-18 16:29N 53°33' E 009°56'0 0.0
2019-Apr-18 15:59N 53°33' E 009°56'0 0.0
2019-Apr-18 15:29N 53°33' E 009°56'0 0.0
2019-Apr-18 14:56N 53°33' E 009°56'0 0.0
2019-Apr-18 14:29N 53°33' E 009°56'0 0.0
2019-Apr-18 13:59N 53°33' E 009°56'0 0.0
2019-Apr-18 13:29N 53°33' E 009°56'0 0.0
2019-Apr-18 12:59N 53°33' E 009°56'0 0.0
2019-Apr-18 12:29N 53°33' E 009°56'0 0.0
2019-Apr-18 11:59N 53°33' E 009°56'0 0.0
2019-Apr-18 11:29N 53°33' E 009°56'0 0.0
2019-Apr-18 10:59N 53°33' E 009°56'0 0.0
2019-Apr-18 10:29N 53°33' E 009°56'1 2.8
2019-Apr-18 10:00N 53°32' E 009°54'4 7.3
2019-Apr-18 09:30N 53°33' E 009°48'5 9.5
2019-Apr-18 09:00N 53°34' E 009°40'611.0
2019-Apr-18 08:30N 53°37' E 009°33'510.7
2019-Apr-18 08:00N 53°42' E 009°29'611.3
2019-Apr-18 07:30N 53°47' E 009°23'612.0
2019-Apr-18 07:00N 53°52' E 009°18'611.8
2019-Apr-18 06:30N 53°53' E 009°08'610.5
2019-Apr-18 05:56N 53°51' E 008°58'512.8
2019-Apr-18 05:30N 53°50' E 008°49'611.7
2019-Apr-18 05:00N 53°54' E 008°41'713.5
2019-Apr-18 04:30N 53°58' E 008°32'714.2
2019-Apr-18 04:00N 53°59' E 008°20'612.7
2019-Apr-18 03:30N 53°60' E 008°09'714.2
2019-Apr-18 03:00N 53°58' E 007°57'815.3
2019-Apr-18 02:30N 53°56' E 007°45'815.2
2019-Apr-18 02:00N 53°55' E 007°32'3015.0
2019-Apr-17 23:58N 53°48' E 006°42'814.9
2019-Apr-17 23:28N 53°46' E 006°30'715.1
2019-Apr-17 23:00N 53°45' E 006°18'1215.4
2019-Apr-17 22:12N 53°40' E 005°58'315.6
2019-Apr-17 22:00N 53°40' E 005°54'815.6
2019-Apr-17 21:30N 53°37' E 005°41'815.7
2019-Apr-17 21:00N 53°34' E 005°29'817.0
2019-Apr-17 20:30N 53°32' E 005°15'1017.6
2019-Apr-17 19:58N 53°28' E 005°00'1917.0
2019-Apr-17 18:51N 53°15' E 004°37'617.4
2019-Apr-17 18:30N 53°10' E 004°32'816.1
2019-Apr-17 18:00N 53°03' E 004°26'816.5
2019-Apr-17 17:30N 52°56' E 004°19'1416.6
2019-Apr-17 16:40N 52°44' E 004°09'316.6
2019-Apr-17 16:30N 52°41' E 004°12'816.9
2019-Apr-17 16:00N 52°35' E 004°20'714.5
2019-Apr-17 15:30N 52°29' E 004°28'510.6
2019-Apr-17 15:00N 52°28' E 004°36'0 0.6
2019-Apr-17 14:31N 52°28' E 004°37'3 5.5
2019-Apr-17 14:00N 52°27' E 004°41'4 8.0
2019-Apr-17 13:30N 52°26' E 004°47'4 7.5
2019-Apr-17 13:01N 52°24' E 004°53'2 4.0
2019-Apr-17 12:30N 52°23' E 004°55'0 0.0
2019-Apr-17 12:00N 52°23' E 004°55'0 0.0
2019-Apr-17 11:30N 52°23' E 004°55'0 0.0
2019-Apr-17 11:00N 52°23' E 004°55'0 0.0
2019-Apr-17 10:30N 52°23' E 004°55'0 0.0
2019-Apr-17 10:00N 52°23' E 004°55'0 0.0
2019-Apr-17 09:30N 52°23' E 004°55'0 0.0
2019-Apr-17 09:00N 52°23' E 004°55'0 0.0
2019-Apr-17 08:30N 52°23' E 004°55'0 0.0
2019-Apr-17 08:00N 52°23' E 004°55'0 0.0
2019-Apr-17 07:30N 52°23' E 004°55'0 0.0
2019-Apr-17 07:00N 52°23' E 004°55'0 0.0
2019-Apr-17 06:30N 52°23' E 004°55'0 0.0
2019-Apr-17 06:00N 52°23' E 004°55'0 0.0
2019-Apr-17 05:30N 52°23' E 004°55'0 0.0
2019-Apr-17 05:00N 52°23' E 004°55'0 0.0
2019-Apr-17 04:30N 52°23' E 004°55'0 0.0
2019-Apr-17 03:57N 52°23' E 004°55'0 0.0
2019-Apr-17 03:30N 52°23' E 004°55'0 0.0
2019-Apr-17 03:00N 52°23' E 004°55'0 0.0
2019-Apr-17 02:30N 52°23' E 004°55'0 0.0
2019-Apr-17 02:00N 52°23' E 004°55'0 0.0
2019-Apr-17 01:30N 52°23' E 004°55'0 0.0
2019-Apr-17 01:00N 52°23' E 004°55'0 0.0
2019-Apr-17 00:30N 52°23' E 004°55'0 0.0
2019-Apr-17 00:00N 52°23' E 004°55'0 0.0
2019-Apr-16 23:30N 52°23' E 004°55'0 0.0
2019-Apr-16 23:00N 52°23' E 004°55'0 0.0
2019-Apr-16 22:27N 52°23' E 004°55'0 0.0
2019-Apr-16 22:00N 52°23' E 004°55'0 0.0
2019-Apr-16 21:30N 52°23' E 004°55'0 0.0
2019-Apr-16 21:00N 52°23' E 004°55'0 0.0
2019-Apr-16 20:30N 52°23' E 004°55'0 0.0
2019-Apr-16 20:00N 52°23' E 004°55'0 0.0
2019-Apr-16 19:30N 52°23' E 004°55'0 0.0
2019-Apr-16 19:00N 52°23' E 004°55'0 0.0
2019-Apr-16 18:30N 52°23' E 004°55'0 0.0
2019-Apr-16 18:00N 52°23' E 004°55'0 0.0
2019-Apr-16 17:30N 52°23' E 004°55'0 0.0
2019-Apr-16 17:00N 52°23' E 004°55'0 0.0
2019-Apr-16 16:30N 52°23' E 004°55'0 0.0
2019-Apr-16 16:00N 52°23' E 004°55'0 0.0
2019-Apr-16 15:30N 52°23' E 004°55'0 0.0
2019-Apr-16 15:00N 52°23' E 004°55'0 0.0
2019-Apr-16 14:30N 52°23' E 004°55'0 0.0
2019-Apr-16 14:00N 52°23' E 004°55'0 0.0
2019-Apr-16 13:30N 52°23' E 004°55'0 0.0
2019-Apr-16 13:00N 52°23' E 004°55'0 0.0
2019-Apr-16 12:27N 52°23' E 004°55'0 0.0
2019-Apr-16 12:00N 52°23' E 004°55'0 0.0
2019-Apr-16 11:27N 52°23' E 004°55'0 0.0
2019-Apr-16 11:00N 52°23' E 004°55'0 0.0
2019-Apr-16 10:30N 52°23' E 004°55'0 0.0
2019-Apr-16 10:00N 52°23' E 004°55'0 0.0
2019-Apr-16 09:30N 52°23' E 004°55'0 0.0
2019-Apr-16 09:00N 52°23' E 004°55'0 0.0
2019-Apr-16 08:30N 52°23' E 004°55'0 0.0
2019-Apr-16 07:57N 52°23' E 004°55'0 0.0
2019-Apr-16 07:30N 52°23' E 004°55'0 0.0
2019-Apr-16 07:00N 52°23' E 004°55'0 0.0
2019-Apr-16 06:30N 52°23' E 004°55'0 0.0
2019-Apr-16 06:00N 52°23' E 004°55'0 0.0
2019-Apr-16 05:30N 52°23' E 004°55'0 0.0
2019-Apr-16 05:00N 52°23' E 004°55'0 0.0
2019-Apr-16 04:30N 52°23' E 004°55'0 0.0
2019-Apr-16 03:57N 52°23' E 004°55'0 0.0
2019-Apr-16 03:30N 52°23' E 004°55'0 0.0
2019-Apr-16 02:57N 52°23' E 004°55'0 0.0
2019-Apr-16 02:30N 52°23' E 004°55'0 0.0
2019-Apr-16 02:00N 52°23' E 004°55'0 0.0
2019-Apr-16 01:30N 52°23' E 004°55'0 0.0
2019-Apr-16 01:00N 52°23' E 004°55'0 0.0
2019-Apr-16 00:30N 52°23' E 004°55'0 0.0
2019-Apr-15 23:57N 52°23' E 004°55'0 0.0
2019-Apr-15 23:30N 52°23' E 004°55'0 0.0
2019-Apr-15 23:00N 52°23' E 004°55'0 0.0
2019-Apr-15 22:30N 52°23' E 004°55'0 0.0
2019-Apr-15 22:00N 52°23' E 004°55'0 0.0
2019-Apr-15 21:30N 52°23' E 004°55'0 0.0
2019-Apr-15 21:00N 52°23' E 004°55'0 0.0
2019-Apr-15 20:30N 52°23' E 004°55'0 0.0
2019-Apr-15 20:00N 52°23' E 004°55'0 0.0
2019-Apr-15 19:27N 52°23' E 004°55'0 0.0
2019-Apr-15 19:00N 52°23' E 004°55'0 0.0
2019-Apr-15 18:30N 52°23' E 004°55'0 0.0
2019-Apr-15 18:00N 52°23' E 004°55'0 0.0
2019-Apr-15 17:30N 52°23' E 004°55'0 0.0
2019-Apr-15 17:00N 52°23' E 004°55'0 0.0
2019-Apr-15 16:30N 52°23' E 004°55'0 0.0
2019-Apr-15 16:00N 52°23' E 004°55'0 0.0
2019-Apr-15 15:30N 52°23' E 004°55'0 0.0
2019-Apr-15 15:00N 52°23' E 004°55'0 0.0
2019-Apr-15 14:30N 52°23' E 004°55'0 0.0
2019-Apr-15 14:00N 52°23' E 004°55'0 0.0
2019-Apr-15 13:30N 52°23' E 004°55'0 0.0
2019-Apr-15 13:00N 52°23' E 004°55'0 0.0
2019-Apr-15 12:30N 52°23' E 004°55'0 0.0
2019-Apr-15 12:00N 52°23' E 004°55'0 0.0
2019-Apr-15 11:30N 52°23' E 004°55'0 0.0
2019-Apr-15 11:00N 52°23' E 004°55'0 0.0
2019-Apr-15 10:30N 52°23' E 004°55'0 0.8
2019-Apr-15 10:00N 52°23' E 004°54'3 5.5
2019-Apr-15 09:31N 52°25' E 004°52'4 7.9
2019-Apr-15 09:00N 52°26' E 004°45'4 8.5
2019-Apr-15 08:30N 52°28' E 004°39'1 3.0
2019-Apr-15 08:01N 52°28' E 004°37'2 4.3
2019-Apr-15 07:31N 52°28' E 004°33'611.4
2019-Apr-15 07:00N 52°29' E 004°24'510.3
2019-Apr-15 06:30N 52°29' E 004°15'611.9
2019-Apr-15 06:00N 52°32' E 004°07'714.7
2019-Apr-15 05:30N 52°39' E 004°03'815.5
2019-Apr-15 04:59N 52°46' E 003°59'1814.9
2019-Apr-15 03:47N 53°03' E 004°09'415.6
2019-Apr-15 03:30N 53°06' E 004°15'714.8
2019-Apr-15 03:00N 53°11' E 004°24'714.5
2019-Apr-15 02:30N 53°17' E 004°29'12515.1
2019-Apr-14 18:14N 54°02' E 007°45'416.8
2019-Apr-14 18:00N 54°01' E 007°52'816.6
2019-Apr-14 17:30N 54°01' E 008°06'612.2
2019-Apr-14 17:00N 54°00' E 008°16'713.4
2019-Apr-14 16:30N 53°59' E 008°28'713.6
2019-Apr-14 16:00N 53°57' E 008°39'613.0
2019-Apr-14 15:30N 53°51' E 008°45'  

Dump ship's entire track history